Aérodrome :
LOGIN :

S'inscrire | Disclaimer

   EN    FR    IT 

 










Légende :    VFR   VFR Marginal   IFR   IFR Intensif   IFR Très Intensif
Visi : 
Plafond : 
>= 8 km
>= 3000ft
5 à 8 km
1000 à 3000 ft
1500m à 5 km
500 à 1000 ft
800 à 1500m
200 à 500 ft
< 800m
< 200 ft
Symboles :   Orages  Brouillard  Fortes neiges  Fortes précipitations  Vent > 20 kt
SIGMETs :   Divers  Orages  Givrage  Turbulence  Onde Orograph.  Cendres Volcan.






- Altitude de l'aérodrome : 1234 ft
- Code IATA : LUX


ELLX - Luxembourg Findel

DERNIER METAR :
  • 272150Z 19013KT 160V230 3000 RA SCT003 BKN005 05/05 Q1000 BECMG 6000 -RA

METARs EXPIRÉS :
  • 272120Z 19014KT 160V220 3000 RA BKN003 05/05 Q1000 TEMPO 6000 -RA BKN006
  • 272050Z 19012KT 160V220 4000 RA BKN003 BKN005 05/05 Q1001 TEMPO 6000 -RA
  • 272020Z 18012KT 3000 -RA BKN003 05/05 Q1001 TEMPO 6000 RA BKN006
  • 271950Z 18012KT 150V210 4500 RA BR BKN003 05/05 Q1002 TEMPO 4000 RA
  • 271920Z 19012KT 6000 -RA SCT003 BKN004 05/05 Q1003 NOSIG

TAF AMD TAF ELLX
Valide du 27 à 18h jusqu'au 29 à 00h UTC


271900Z 2718/2824 22012KT 8000 -RA BKN005
TEMPO 2718/2802 5000 RA
TEMPO 2803/2818 25018G32KT 3000 SHRASN SCT008TCU BKN010
TEMPO 2803/2815 25025G45KT 1500 TSSNGS BKN008CB
TEMPO 2820/2824 1500 -SNRA BKN003
ATIS : +352 4798 27300
Météo : +352 4798 27010 / 27050



MET'MAP, la Météo Aéronautique d'un coup d'oeil ! - Copyright ORBIFLY Décembre 2007 - Disclaimer

ORBIFLY MET'MAP TEAM :

Programmation & Développement : Alexandra Zaïnal
Sur une idée originale de : Baudouin d'Aumeries
Assistance à la programmation : Marc-Olivier Méhu
Soutien technique & logistique : Manuel Goepfert

Contact : metmap@orbifly.com




SOURCES & CREDITS :

   NOAA